sensor_id;sensor_type;location;lat;lon;timestamp;pressure;altitude;pressure_sealevel;temperature;humidity
77877;BME280;67251;50.844;7.978;2023-08-06T00:01:25;97851.44;;;12.27;100.00
77877;BME280;67251;50.844;7.978;2023-08-06T00:03:51;97842.09;;;12.30;100.00
77877;BME280;67251;50.844;7.978;2023-08-06T00:06:16;97833.25;;;12.30;100.00
77877;BME280;67251;50.844;7.978;2023-08-06T00:08:42;97825.75;;;12.32;100.00
77877;BME280;67251;50.844;7.978;2023-08-06T00:11:07;97827.16;;;12.34;100.00
77877;BME280;67251;50.844;7.978;2023-08-06T00:13:32;97827.97;;;12.35;100.00
77877;BME280;67251;50.844;7.978;2023-08-06T00:16:11;97823.53;;;12.40;100.00
77877;BME280;67251;50.844;7.978;2023-08-06T00:18:37;97818.50;;;12.44;100.00
77877;BME280;67251;50.844;7.978;2023-08-06T00:21:02;97816.88;;;12.43;100.00
77877;BME280;67251;50.844;7.978;2023-08-06T00:23:28;97818.50;;;12.44;100.00
77877;BME280;67251;50.844;7.978;2023-08-06T00:25:53;97810.38;;;12.39;100.00
77877;BME280;67251;50.844;7.978;2023-08-06T00:28:18;97808.41;;;12.34;100.00
77877;BME280;67251;50.844;7.978;2023-08-06T00:30:44;97800.81;;;12.31;100.00
77877;BME280;67251;50.844;7.978;2023-08-06T00:33:09;97797.78;;;12.27;100.00
77877;BME280;67251;50.844;7.978;2023-08-06T00:35:34;97794.63;;;12.31;100.00
77877;BME280;67251;50.844;7.978;2023-08-06T00:38:00;97797.06;;;12.32;100.00
77877;BME280;67251;50.844;7.978;2023-08-06T00:40:25;97792.28;;;12.34;100.00
77877;BME280;67251;50.844;7.978;2023-08-06T00:42:53;97785.78;;;12.30;100.00
77877;BME280;67251;50.844;7.978;2023-08-06T00:45:18;97787.06;;;12.27;100.00
77877;BME280;67251;50.844;7.978;2023-08-06T00:47:44;97780.78;;;12.22;100.00
77877;BME280;67251;50.844;7.978;2023-08-06T00:50:11;97782.56;;;12.16;100.00
77877;BME280;67251;50.844;7.978;2023-08-06T00:52:37;97786.66;;;12.07;100.00
77877;BME280;67251;50.844;7.978;2023-08-06T00:55:03;97786.28;;;12.03;100.00
77877;BME280;67251;50.844;7.978;2023-08-06T00:57:28;97787.72;;;12.06;100.00
77877;BME280;67251;50.844;7.978;2023-08-06T00:59:54;97787.25;;;12.09;100.00
77877;BME280;67251;50.844;7.978;2023-08-06T01:02:20;97787.19;;;12.21;100.00
77877;BME280;67251;50.844;7.978;2023-08-06T01:04:45;97775.28;;;12.28;100.00
77877;BME280;67251;50.844;7.978;2023-08-06T01:10:23;97763.69;;;12.40;100.00
77877;BME280;67251;50.844;7.978;2023-08-06T01:13:10;97774.53;;;12.45;100.00
77877;BME280;67251;50.844;7.978;2023-08-06T01:15:42;97768.09;;;12.46;100.00
77877;BME280;67251;50.844;7.978;2023-08-06T01:18:10;97764.38;;;12.47;100.00
77877;BME280;67251;50.844;7.978;2023-08-06T01:20:36;97752.00;;;12.46;100.00
77877;BME280;67251;50.844;7.978;2023-08-06T01:23:01;97764.03;;;12.43;100.00
77877;BME280;67251;50.844;7.978;2023-08-06T01:25:30;97755.41;;;12.41;100.00
77877;BME280;67251;50.844;7.978;2023-08-06T01:28:03;97756.13;;;12.37;100.00
77877;BME280;67251;50.844;7.978;2023-08-06T01:30:31;97753.44;;;12.37;100.00
77877;BME280;67251;50.844;7.978;2023-08-06T01:33:04;97754.25;;;12.37;100.00
77877;BME280;67251;50.844;7.978;2023-08-06T01:35:30;97748.06;;;12.37;100.00
77877;BME280;67251;50.844;7.978;2023-08-06T01:37:55;97751.81;;;12.36;100.00
77877;BME280;67251;50.844;7.978;2023-08-06T01:40:21;97749.72;;;12.38;100.00
77877;BME280;67251;50.844;7.978;2023-08-06T01:42:47;97744.34;;;12.38;100.00
77877;BME280;67251;50.844;7.978;2023-08-06T01:45:12;97747.59;;;12.40;100.00
77877;BME280;67251;50.844;7.978;2023-08-06T01:51:07;97738.28;;;12.42;100.00
77877;BME280;67251;50.844;7.978;2023-08-06T01:53:33;97756.22;;;12.42;100.00
77877;BME280;67251;50.844;7.978;2023-08-06T01:55:58;97749.22;;;12.41;100.00
77877;BME280;67251;50.844;7.978;2023-08-06T01:58:24;97747.59;;;12.40;100.00
77877;BME280;67251;50.844;7.978;2023-08-06T02:00:49;97745.72;;;12.40;100.00
77877;BME280;67251;50.844;7.978;2023-08-06T02:03:14;97736.88;;;12.40;100.00
77877;BME280;67251;50.844;7.978;2023-08-06T02:05:40;97737.94;;;12.39;100.00
77877;BME280;67251;50.844;7.978;2023-08-06T02:08:06;97731.97;;;12.37;100.00
77877;BME280;67251;50.844;7.978;2023-08-06T02:10:31;97730.34;;;12.36;100.00
77877;BME280;67251;50.844;7.978;2023-08-06T02:12:56;97725.00;;;12.36;100.00
77877;BME280;67251;50.844;7.978;2023-08-06T02:15:22;97722.56;;;12.34;100.00
77877;BME280;67251;50.844;7.978;2023-08-06T02:17:47;97723.38;;;12.35;100.00
77877;BME280;67251;50.844;7.978;2023-08-06T02:20:12;97719.63;;;12.36;100.00
77877;BME280;67251;50.844;7.978;2023-08-06T02:22:38;97716.94;;;12.36;100.00
77877;BME280;67251;50.844;7.978;2023-08-06T02:25:03;97721.50;;;12.35;100.00
77877;BME280;67251;50.844;7.978;2023-08-06T02:27:29;97718.00;;;12.35;100.00
77877;BME280;67251;50.844;7.978;2023-08-06T02:29:54;97714.25;;;12.36;100.00
77877;BME280;67251;50.844;7.978;2023-08-06T02:32:19;97709.72;;;12.36;100.00
77877;BME280;67251;50.844;7.978;2023-08-06T02:34:45;97712.38;;;12.36;100.00
77877;BME280;67251;50.844;7.978;2023-08-06T02:37:10;97701.91;;;12.35;100.00
77877;BME280;67251;50.844;7.978;2023-08-06T02:39:35;97702.16;;;12.33;100.00
77877;BME280;67251;50.844;7.978;2023-08-06T02:42:05;97693.28;;;12.33;100.00
77877;BME280;67251;50.844;7.978;2023-08-06T02:44:30;97693.28;;;12.33;100.00
77877;BME280;67251;50.844;7.978;2023-08-06T02:46:56;97696.19;;;12.31;100.00
77877;BME280;67251;50.844;7.978;2023-08-06T02:49:21;97691.44;;;12.33;100.00
77877;BME280;67251;50.844;7.978;2023-08-06T02:51:46;97691.19;;;12.35;100.00
77877;BME280;67251;50.844;7.978;2023-08-06T02:54:12;97683.13;;;12.35;100.00
77877;BME280;67251;50.844;7.978;2023-08-06T02:59:59;97673.94;;;12.31;100.00
77877;BME280;67251;50.844;7.978;2023-08-06T03:02:24;97667.75;;;12.30;100.00
77877;BME280;67251;50.844;7.978;2023-08-06T03:04:50;97661.34;;;12.31;100.00
77877;BME280;67251;50.844;7.978;2023-08-06T03:07:16;97652.72;;;12.29;100.00
77877;BME280;67251;50.844;7.978;2023-08-06T03:09:41;97661.59;;;12.30;100.00
77877;BME280;67251;50.844;7.978;2023-08-06T03:12:07;97657.28;;;12.28;100.00
77877;BME280;67251;50.844;7.978;2023-08-06T03:14:32;97657.50;;;12.27;100.00
77877;BME280;67251;50.844;7.978;2023-08-06T03:16:58;97656.13;;;12.24;100.00
77877;BME280;67251;50.844;7.978;2023-08-06T03:19:23;97651.25;;;12.21;100.00
77877;BME280;67251;50.844;7.978;2023-08-06T03:21:48;97647.50;;;12.22;100.00
77877;BME280;67251;50.844;7.978;2023-08-06T03:24:14;97646.69;;;12.22;100.00
77877;BME280;67251;50.844;7.978;2023-08-06T03:26:39;97648.81;;;12.20;100.00
77877;BME280;67251;50.844;7.978;2023-08-06T03:29:04;97654.16;;;12.20;100.00
77877;BME280;67251;50.844;7.978;2023-08-06T03:31:30;97651.50;;;12.20;100.00
77877;BME280;67251;50.844;7.978;2023-08-06T03:33:55;97649.03;;;12.18;100.00
77877;BME280;67251;50.844;7.978;2023-08-06T03:36:21;97645.06;;;12.21;100.00
77877;BME280;67251;50.844;7.978;2023-08-06T03:38:46;97639.44;;;12.22;100.00
77877;BME280;67251;50.844;7.978;2023-08-06T03:41:12;97640.25;;;12.23;100.00
77877;BME280;67251;50.844;7.978;2023-08-06T03:43:37;97642.72;;;12.24;100.00
77877;BME280;67251;50.844;7.978;2023-08-06T03:46:03;97640.03;;;12.24;100.00
77877;BME280;67251;50.844;7.978;2023-08-06T03:48:28;97645.97;;;12.26;100.00
77877;BME280;67251;50.844;7.978;2023-08-06T03:50:53;97640.59;;;12.26;100.00
77877;BME280;67251;50.844;7.978;2023-08-06T03:53:18;97636.63;;;12.29;100.00
77877;BME280;67251;50.844;7.978;2023-08-06T03:55:44;97635.00;;;12.28;100.00
77877;BME280;67251;50.844;7.978;2023-08-06T03:58:09;97640.03;;;12.24;100.00
77877;BME280;67251;50.844;7.978;2023-08-06T04:00:35;97625.72;;;12.19;100.00
77877;BME280;67251;50.844;7.978;2023-08-06T04:03:00;97629.34;;;12.13;100.00
77877;BME280;67251;50.844;7.978;2023-08-06T04:05:25;97617.16;;;12.05;100.00
77877;BME280;67251;50.844;7.978;2023-08-06T04:07:51;97624.88;;;12.01;100.00
77877;BME280;67251;50.844;7.978;2023-08-06T04:10:16;97617.66;;;12.02;100.00
77877;BME280;67251;50.844;7.978;2023-08-06T04:12:41;97625.44;;;12.03;100.00
77877;BME280;67251;50.844;7.978;2023-08-06T04:15:07;97618.19;;;12.04;100.00
77877;BME280;67251;50.844;7.978;2023-08-06T04:17:32;97626.13;;;12.11;100.00
77877;BME280;67251;50.844;7.978;2023-08-06T04:19:58;97617.91;;;12.17;100.00
77877;BME280;67251;50.844;7.978;2023-08-06T04:22:24;97615.31;;;12.22;100.00
77877;BME280;67251;50.844;7.978;2023-08-06T04:24:49;97617.28;;;12.27;100.00
77877;BME280;67251;50.844;7.978;2023-08-06T04:27:16;97619.72;;;12.28;100.00
77877;BME280;67251;50.844;7.978;2023-08-06T04:29:42;97620.84;;;12.33;100.00
77877;BME280;67251;50.844;7.978;2023-08-06T04:32:08;97618.34;;;12.43;100.00
77877;BME280;67251;50.844;7.978;2023-08-06T04:34:35;97609.75;;;12.58;100.00
77877;BME280;67251;50.844;7.978;2023-08-06T04:37:01;97610.06;;;12.78;100.00
77877;BME280;67251;50.844;7.978;2023-08-06T04:39:27;97606.91;;;13.03;100.00
77877;BME280;67251;50.844;7.978;2023-08-06T04:41:52;97612.09;;;13.26;100.00
77877;BME280;67251;50.844;7.978;2023-08-06T04:44:18;97612.13;;;13.48;100.00
77877;BME280;67251;50.844;7.978;2023-08-06T04:46:44;97614.19;;;13.63;99.99
77877;BME280;67251;50.844;7.978;2023-08-06T04:49:09;97612.34;;;13.69;99.62
77877;BME280;67251;50.844;7.978;2023-08-06T04:51:34;97604.59;;;13.72;99.30
77877;BME280;67251;50.844;7.978;2023-08-06T04:54:00;97603.53;;;13.73;98.79
77877;BME280;67251;50.844;7.978;2023-08-06T04:56:25;97606.84;;;13.80;98.30
77877;BME280;67251;50.844;7.978;2023-08-06T04:58:51;97600.47;;;13.87;97.71
77877;BME280;67251;50.844;7.978;2023-08-06T05:01:17;97603.84;;;13.99;97.55
77877;BME280;67251;50.844;7.978;2023-08-06T05:03:42;97607.44;;;14.10;96.65
77877;BME280;67251;50.844;7.978;2023-08-06T05:06:07;97609.34;;;14.14;96.33
77877;BME280;67251;50.844;7.978;2023-08-06T05:08:33;97607.75;;;14.13;96.15
77877;BME280;67251;50.844;7.978;2023-08-06T05:10:58;97609.84;;;14.11;96.02
77877;BME280;67251;50.844;7.978;2023-08-06T05:13:24;97613.06;;;14.08;96.11
77877;BME280;67251;50.844;7.978;2023-08-06T05:15:50;97611.59;;;13.95;94.36
77877;BME280;67251;50.844;7.978;2023-08-06T05:18:16;97615.03;;;13.91;95.02
77877;BME280;67251;50.844;7.978;2023-08-06T05:20:42;97608.22;;;13.83;94.55
77877;BME280;67251;50.844;7.978;2023-08-06T05:23:07;97609.88;;;13.84;94.96
77877;BME280;67251;50.844;7.978;2023-08-06T05:25:36;97607.97;;;13.85;95.04
77877;BME280;67251;50.844;7.978;2023-08-06T05:28:02;97609.59;;;13.86;95.35
77877;BME280;67251;50.844;7.978;2023-08-06T05:30:28;97610.09;;;13.82;95.38
77877;BME280;67251;50.844;7.978;2023-08-06T05:32:53;97616.81;;;13.80;94.13
77877;BME280;67251;50.844;7.978;2023-08-06T05:35:18;97610.41;;;13.86;94.45
77877;BME280;67251;50.844;7.978;2023-08-06T05:37:44;97616.38;;;13.88;93.21
77877;BME280;67251;50.844;7.978;2023-08-06T05:40:09;97613.72;;;13.93;93.14
77877;BME280;67251;50.844;7.978;2023-08-06T05:42:34;97618.84;;;13.95;93.59
77877;BME280;67251;50.844;7.978;2023-08-06T05:45:00;97626.41;;;13.98;93.69
77877;BME280;67251;50.844;7.978;2023-08-06T05:47:25;97624.81;;;14.02;93.39
77877;BME280;67251;50.844;7.978;2023-08-06T05:49:51;97627.63;;;14.12;93.15
77877;BME280;67251;50.844;7.978;2023-08-06T05:52:16;97615.84;;;14.18;91.75
77877;BME280;67251;50.844;7.978;2023-08-06T05:54:41;97624.81;;;14.29;91.29
77877;BME280;67251;50.844;7.978;2023-08-06T05:57:07;97619.94;;;14.53;90.30
77877;BME280;67251;50.844;7.978;2023-08-06T05:59:32;97625.75;;;14.72;87.33
77877;BME280;67251;50.844;7.978;2023-08-06T06:01:57;97619.47;;;14.93;86.00
77877;BME280;67251;50.844;7.978;2023-08-06T06:04:23;97624.72;;;15.15;85.49
77877;BME280;67251;50.844;7.978;2023-08-06T06:06:48;97619.38;;;15.20;83.90
77877;BME280;67251;50.844;7.978;2023-08-06T06:09:14;97623.91;;;15.15;83.50
77877;BME280;67251;50.844;7.978;2023-08-06T06:11:39;97623.09;;;15.14;84.52
77877;BME280;67251;50.844;7.978;2023-08-06T06:14:04;97624.88;;;14.98;84.39
77877;BME280;67251;50.844;7.978;2023-08-06T06:16:30;97626.31;;;15.11;84.63
77877;BME280;67251;50.844;7.978;2023-08-06T06:18:55;97625.28;;;15.17;84.33
77877;BME280;67251;50.844;7.978;2023-08-06T06:21:23;97625.72;;;15.04;85.03
77877;BME280;67251;50.844;7.978;2023-08-06T06:23:49;97631.47;;;14.80;86.85
77877;BME280;67251;50.844;7.978;2023-08-06T06:26:16;97634.22;;;14.86;87.80
77877;BME280;67251;50.844;7.978;2023-08-06T06:28:42;97634.25;;;14.91;88.05
77877;BME280;67251;50.844;7.978;2023-08-06T06:31:07;97628.41;;;15.04;88.22
77877;BME280;67251;50.844;7.978;2023-08-06T06:33:33;97630.38;;;15.19;87.79
77877;BME280;67251;50.844;7.978;2023-08-06T06:35:58;97629.41;;;15.30;87.45
77877;BME280;67251;50.844;7.978;2023-08-06T06:38:23;97626.47;;;15.42;86.54
77877;BME280;67251;50.844;7.978;2023-08-06T06:40:58;97623.66;;;15.64;85.66
77877;BME280;67251;50.844;7.978;2023-08-06T06:43:24;97628.84;;;15.33;84.09
77877;BME280;67251;50.844;7.978;2023-08-06T06:45:53;97627.59;;;15.46;85.64
77877;BME280;67251;50.844;7.978;2023-08-06T06:48:19;97615.69;;;15.42;85.34
77877;BME280;67251;50.844;7.978;2023-08-06T06:50:47;97618.75;;;15.60;85.70
77877;BME280;67251;50.844;7.978;2023-08-06T06:53:13;97613.47;;;15.81;84.80
77877;BME280;67251;50.844;7.978;2023-08-06T06:55:38;97614.84;;;15.99;85.01
77877;BME280;67251;50.844;7.978;2023-08-06T06:58:04;97612.16;;;16.04;83.46
77877;BME280;67251;50.844;7.978;2023-08-06T07:00:29;97615.22;;;16.43;81.79
77877;BME280;67251;50.844;7.978;2023-08-06T07:02:54;97607.94;;;16.74;81.25
77877;BME280;67251;50.844;7.978;2023-08-06T07:05:20;97614.66;;;16.97;81.19
77877;BME280;67251;50.844;7.978;2023-08-06T07:07:45;97612.50;;;17.15;79.65
77877;BME280;67251;50.844;7.978;2023-08-06T07:10:10;97613.06;;;16.91;78.98
77877;BME280;67251;50.844;7.978;2023-08-06T07:12:36;97614.97;;;16.75;80.18
77877;BME280;67251;50.844;7.978;2023-08-06T07:15:04;97608.19;;;17.03;79.07
77877;BME280;67251;50.844;7.978;2023-08-06T07:17:30;97610.00;;;17.38;78.48
77877;BME280;67251;50.844;7.978;2023-08-06T07:19:55;97608.28;;;17.58;73.93
77877;BME280;67251;50.844;7.978;2023-08-06T07:22:20;97613.53;;;17.29;75.22
77877;BME280;67251;50.844;7.978;2023-08-06T07:24:46;97613.28;;;17.20;78.01
77877;BME280;67251;50.844;7.978;2023-08-06T07:27:11;97608.91;;;17.34;77.35
77877;BME280;67251;50.844;7.978;2023-08-06T07:29:36;97620.63;;;16.84;76.96
77877;BME280;67251;50.844;7.978;2023-08-06T07:32:02;97619.81;;;16.83;78.90
77877;BME280;67251;50.844;7.978;2023-08-06T07:34:27;97617.69;;;16.80;80.69
77877;BME280;67251;50.844;7.978;2023-08-06T07:36:52;97616.81;;;16.59;81.51
77877;BME280;67251;50.844;7.978;2023-08-06T07:39:18;97627.34;;;16.51;84.62
77877;BME280;67251;50.844;7.978;2023-08-06T07:41:43;97629.22;;;16.35;84.05
77877;BME280;67251;50.844;7.978;2023-08-06T07:44:11;97623.53;;;16.21;83.99
77877;BME280;67251;50.844;7.978;2023-08-06T07:46:36;97623.81;;;16.09;86.28
77877;BME280;67251;50.844;7.978;2023-08-06T07:49:01;97620.00;;;16.05;86.45
77877;BME280;67251;50.844;7.978;2023-08-06T07:51:27;97621.63;;;16.01;87.43
77877;BME280;67251;50.844;7.978;2023-08-06T07:53:53;97630.00;;;16.00;86.86
77877;BME280;67251;50.844;7.978;2023-08-06T07:56:18;97625.91;;;15.97;87.26
77877;BME280;67251;50.844;7.978;2023-08-06T07:58:43;97625.09;;;15.92;86.86
77877;BME280;67251;50.844;7.978;2023-08-06T08:01:09;97624.81;;;15.88;88.16
77877;BME280;67251;50.844;7.978;2023-08-06T08:03:34;97622.66;;;15.90;88.54
77877;BME280;67251;50.844;7.978;2023-08-06T08:06:00;97619.22;;;16.10;86.70
77877;BME280;67251;50.844;7.978;2023-08-06T08:08:25;97620.56;;;16.18;85.21
77877;BME280;67251;50.844;7.978;2023-08-06T08:10:51;97627.03;;;16.12;84.94
77877;BME280;67251;50.844;7.978;2023-08-06T08:13:16;97621.09;;;16.09;85.65
77877;BME280;67251;50.844;7.978;2023-08-06T08:15:41;97620.31;;;16.19;85.69
77877;BME280;67251;50.844;7.978;2023-08-06T08:18:07;97617.09;;;16.48;84.95
77877;BME280;67251;50.844;7.978;2023-08-06T08:20:32;97616.06;;;16.84;83.43
77877;BME280;67251;50.844;7.978;2023-08-06T08:23:00;97613.06;;;16.96;83.09
77877;BME280;67251;50.844;7.978;2023-08-06T08:25:26;97609.53;;;17.01;80.90
77877;BME280;67251;50.844;7.978;2023-08-06T08:27:52;97619.81;;;16.68;83.05
77877;BME280;67251;50.844;7.978;2023-08-06T08:30:18;97622.97;;;16.04;83.98
77877;BME280;67251;50.844;7.978;2023-08-06T08:32:43;97624.75;;;15.73;87.07
77877;BME280;67251;50.844;7.978;2023-08-06T08:35:08;97620.16;;;15.68;86.37
77877;BME280;67251;50.844;7.978;2023-08-06T08:37:34;97626.22;;;16.06;85.19
77877;BME280;67251;50.844;7.978;2023-08-06T08:39:59;97616.81;;;16.49;81.02
77877;BME280;67251;50.844;7.978;2023-08-06T08:42:25;97617.66;;;16.91;77.79
77877;BME280;67251;50.844;7.978;2023-08-06T08:44:52;97617.53;;;17.47;75.97
77877;BME280;67251;50.844;7.978;2023-08-06T08:47:18;97614.00;;;17.51;74.37
77877;BME280;67251;50.844;7.978;2023-08-06T08:49:44;97614.50;;;17.74;74.44
77877;BME280;67251;50.844;7.978;2023-08-06T08:52:11;97616.34;;;17.83;72.89
77877;BME280;67251;50.844;7.978;2023-08-06T08:54:40;97628.38;;;18.06;73.93
77877;BME280;67251;50.844;7.978;2023-08-06T08:57:06;97625.19;;;17.99;73.00
77877;BME280;67251;50.844;7.978;2023-08-06T08:59:33;97620.09;;;17.93;74.78
77877;BME280;67251;50.844;7.978;2023-08-06T09:02:01;97633.16;;;17.65;74.08
77877;BME280;67251;50.844;7.978;2023-08-06T09:04:29;97631.94;;;17.27;74.09
77877;BME280;67251;50.844;7.978;2023-08-06T09:06:58;97639.81;;;17.13;76.47
77877;BME280;67251;50.844;7.978;2023-08-06T09:09:31;97630.31;;;16.59;77.10
77877;BME280;67251;50.844;7.978;2023-08-06T09:12:00;97634.94;;;16.79;77.73
77877;BME280;67251;50.844;7.978;2023-08-06T09:14:29;97635.38;;;17.48;74.65
77877;BME280;67251;50.844;7.978;2023-08-06T09:16:54;97630.72;;;17.74;74.04
77877;BME280;67251;50.844;7.978;2023-08-06T09:19:20;97629.03;;;17.88;72.64
77877;BME280;67251;50.844;7.978;2023-08-06T09:21:45;97636.72;;;18.59;72.39
77877;BME280;67251;50.844;7.978;2023-08-06T09:24:14;97631.91;;;19.44;72.54
77877;BME280;67251;50.844;7.978;2023-08-06T09:26:41;97637.63;;;19.66;68.31
77877;BME280;67251;50.844;7.978;2023-08-06T09:29:08;97632.53;;;19.83;68.31
77877;BME280;67251;50.844;7.978;2023-08-06T09:31:40;97632.28;;;19.61;66.30
77877;BME280;67251;50.844;7.978;2023-08-06T09:34:20;97648.78;;;18.82;70.48
77877;BME280;67251;50.844;7.978;2023-08-06T09:36:48;97652.84;;;18.41;73.10
77877;BME280;67251;50.844;7.978;2023-08-06T09:39:16;97655.03;;;17.84;73.25
77877;BME280;67251;50.844;7.978;2023-08-06T09:41:42;97662.44;;;17.43;76.09
77877;BME280;67251;50.844;7.978;2023-08-06T09:44:21;97653.88;;;17.00;75.32
77877;BME280;67251;50.844;7.978;2023-08-06T09:46:56;97652.50;;;16.56;77.10
77877;BME280;67251;50.844;7.978;2023-08-06T09:49:40;97662.72;;;16.34;79.28
77877;BME280;67251;50.844;7.978;2023-08-06T09:52:14;97665.16;;;16.46;79.00
77877;BME280;67251;50.844;7.978;2023-08-06T09:54:43;97662.72;;;16.49;78.39
77877;BME280;67251;50.844;7.978;2023-08-06T09:57:08;97661.16;;;16.79;78.41
77877;BME280;67251;50.844;7.978;2023-08-06T09:59:35;97663.88;;;16.89;77.77
77877;BME280;67251;50.844;7.978;2023-08-06T10:02:02;97657.63;;;17.19;76.38
77877;BME280;67251;50.844;7.978;2023-08-06T10:04:29;97664.66;;;17.15;76.78
77877;BME280;67251;50.844;7.978;2023-08-06T10:06:54;97664.13;;;16.98;76.90
77877;BME280;67251;50.844;7.978;2023-08-06T10:09:19;97658.16;;;17.06;77.33
77877;BME280;67251;50.844;7.978;2023-08-06T10:11:50;97662.47;;;17.27;75.71
77877;BME280;67251;50.844;7.978;2023-08-06T10:14:20;97660.31;;;17.24;77.73
77877;BME280;67251;50.844;7.978;2023-08-06T10:16:47;97657.63;;;17.19;76.50
77877;BME280;67251;50.844;7.978;2023-08-06T10:19:13;97658.72;;;16.98;76.69
77877;BME280;67251;50.844;7.978;2023-08-06T10:21:40;97648.19;;;17.01;77.08
77877;BME280;67251;50.844;7.978;2023-08-06T10:24:14;97652.22;;;16.94;77.46
77877;BME280;67251;50.844;7.978;2023-08-06T10:26:39;97662.25;;;16.73;78.13
77877;BME280;67251;50.844;7.978;2023-08-06T10:29:36;97665.22;;;16.76;78.96
77877;BME280;67251;50.844;7.978;2023-08-06T10:32:02;97656.56;;;16.74;78.86
77877;BME280;67251;50.844;7.978;2023-08-06T10:34:59;97658.69;;;16.47;79.84
77877;BME280;67251;50.844;7.978;2023-08-06T10:37:37;97653.03;;;16.64;80.54
77877;BME280;67251;50.844;7.978;2023-08-06T10:40:06;97656.56;;;16.79;80.28
77877;BME280;67251;50.844;7.978;2023-08-06T10:42:32;97653.88;;;16.90;79.74
77877;BME280;67251;50.844;7.978;2023-08-06T10:47:42;97653.31;;;17.18;78.03
77877;BME280;67251;50.844;7.978;2023-08-06T10:50:11;97654.38;;;17.22;77.11
77877;BME280;67251;50.844;7.978;2023-08-06T10:52:37;97654.59;;;17.46;76.29
77877;BME280;67251;50.844;7.978;2023-08-06T10:55:03;97655.28;;;17.87;76.33
77877;BME280;67251;50.844;7.978;2023-08-06T10:57:28;97645.66;;;18.60;74.01
77877;BME280;67251;50.844;7.978;2023-08-06T10:59:54;97644.00;;;18.98;71.83
77877;BME280;67251;50.844;7.978;2023-08-06T11:02:19;97647.94;;;19.16;73.56
77877;BME280;67251;50.844;7.978;2023-08-06T11:04:45;97645.19;;;19.45;73.43
77877;BME280;67251;50.844;7.978;2023-08-06T11:07:10;97646.59;;;19.37;72.46
77877;BME280;67251;50.844;7.978;2023-08-06T11:09:37;97644.22;;;19.07;72.41
77877;BME280;67251;50.844;7.978;2023-08-06T11:12:09;97652.00;;;18.45;73.93
77877;BME280;67251;50.844;7.978;2023-08-06T11:14:34;97653.97;;;17.80;75.98
77877;BME280;67251;50.844;7.978;2023-08-06T11:17:00;97658.44;;;17.15;78.45
77877;BME280;67251;50.844;7.978;2023-08-06T11:19:25;97661.94;;;17.25;79.32
77877;BME280;67251;50.844;7.978;2023-08-06T11:21:51;97652.09;;;17.65;79.04
77877;BME280;67251;50.844;7.978;2023-08-06T11:24:17;97651.88;;;18.21;76.75
77877;BME280;67251;50.844;7.978;2023-08-06T11:26:42;97645.31;;;18.67;73.95
77877;BME280;67251;50.844;7.978;2023-08-06T11:29:09;97652.66;;;19.00;74.06
77877;BME280;67251;50.844;7.978;2023-08-06T11:31:36;97654.84;;;18.98;72.07
77877;BME280;67251;50.844;7.978;2023-08-06T11:34:01;97661.22;;;18.83;72.86
77877;BME280;67251;50.844;7.978;2023-08-06T11:36:30;97665.38;;;18.65;73.39
77877;BME280;67251;50.844;7.978;2023-08-06T11:38:57;97667.28;;;18.26;73.42
77877;BME280;67251;50.844;7.978;2023-08-06T11:41:22;97661.75;;;17.92;74.44
77877;BME280;67251;50.844;7.978;2023-08-06T11:43:48;97661.53;;;17.88;74.95
77877;BME280;67251;50.844;7.978;2023-08-06T11:46:13;97660.44;;;18.33;75.44
77877;BME280;67251;50.844;7.978;2023-08-06T11:48:52;97669.69;;;18.27;75.04
77877;BME280;67251;50.844;7.978;2023-08-06T11:51:18;97672.72;;;17.35;77.39
77877;BME280;67251;50.844;7.978;2023-08-06T11:53:48;97686.72;;;16.30;81.96
77877;BME280;67251;50.844;7.978;2023-08-06T11:56:14;97694.69;;;15.47;85.66
77877;BME280;67251;50.844;7.978;2023-08-06T11:58:43;97696.72;;;14.88;89.73
77877;BME280;67251;50.844;7.978;2023-08-06T12:01:09;97703.34;;;14.48;91.14
77877;BME280;67251;50.844;7.978;2023-08-06T12:03:41;97705.94;;;14.16;93.41
77877;BME280;67251;50.844;7.978;2023-08-06T12:06:07;97708.50;;;14.05;96.72
77877;BME280;67251;50.844;7.978;2023-08-06T12:08:33;97703.34;;;13.99;95.60
77877;BME280;67251;50.844;7.978;2023-08-06T12:10:58;97710.66;;;13.81;95.40
77877;BME280;67251;50.844;7.978;2023-08-06T12:13:24;97730.09;;;13.67;96.33
77877;BME280;67251;50.844;7.978;2023-08-06T12:15:49;97731.25;;;13.54;97.23
77877;BME280;67251;50.844;7.978;2023-08-06T12:18:14;97739.00;;;13.50;97.46
77877;BME280;67251;50.844;7.978;2023-08-06T12:20:40;97741.03;;;13.43;97.81
77877;BME280;67251;50.844;7.978;2023-08-06T12:23:05;97762.66;;;13.32;98.06
77877;BME280;67251;50.844;7.978;2023-08-06T12:25:31;97761.72;;;13.26;99.22
77877;BME280;67251;50.844;7.978;2023-08-06T12:27:56;97771.31;;;13.22;99.55
77877;BME280;67251;50.844;7.978;2023-08-06T12:30:21;97772.19;;;13.11;98.91
77877;BME280;67251;50.844;7.978;2023-08-06T12:32:47;97782.84;;;13.05;100.00
77877;BME280;67251;50.844;7.978;2023-08-06T12:35:12;97780.09;;;13.00;100.00
77877;BME280;67251;50.844;7.978;2023-08-06T12:37:39;97791.00;;;12.94;100.00
77877;BME280;67251;50.844;7.978;2023-08-06T12:40:05;97803.66;;;12.82;100.00
77877;BME280;67251;50.844;7.978;2023-08-06T12:42:30;97818.38;;;12.79;100.00
77877;BME280;67251;50.844;7.978;2023-08-06T12:44:56;97808.06;;;12.59;100.00
77877;BME280;67251;50.844;7.978;2023-08-06T12:47:21;97823.41;;;12.47;100.00
77877;BME280;67251;50.844;7.978;2023-08-06T12:49:46;97825.88;;;12.37;100.00
77877;BME280;67251;50.844;7.978;2023-08-06T12:52:12;97835.13;;;12.29;100.00
77877;BME280;67251;50.844;7.978;2023-08-06T12:54:40;97836.63;;;12.25;100.00
77877;BME280;67251;50.844;7.978;2023-08-06T12:57:05;97848.19;;;12.25;100.00
77877;BME280;67251;50.844;7.978;2023-08-06T12:59:31;97848.41;;;12.24;100.00
77877;BME280;67251;50.844;7.978;2023-08-06T13:01:58;97844.34;;;12.21;100.00
77877;BME280;67251;50.844;7.978;2023-08-06T13:04:23;97854.50;;;12.19;100.00